Time;durP1;ratioP1;P1;durP2;ratioP2;P2;SDS_P1;SDS_P2;PMS_P1;PMS_P2;Temp;Humidity;BMP_temperature;BMP_pressure;BME280_temperature;BME280_humidity;BME280_pressure;Samples;Min_cycle;Max_cycle;Signal;HPM_P1;HPM_P2
2021/01/29 00:00:38;;;;;;;12.23;6.65;;;;;;;7.61;71.81;98753.19;4993075;28;20073;-63
2021/01/29 00:03:08;;;;;;;8.55;6.65;;;;;;;7.62;72.03;98754.81;5005983;28;20057;-63
2021/01/29 00:05:38;;;;;;;11.50;6.65;;;;;;;7.60;72.34;98748.78;5012310;28;20053;-63
2021/01/29 00:08:06;;;;;;;8.60;6.07;;;;;;;7.59;71.83;98743.59;5012903;28;20060;-63
2021/01/29 00:10:33;;;;;;;9.65;6.35;;;;;;;7.60;71.78;98731.34;5002068;28;20058;-63
2021/01/29 00:13:01;;;;;;;9.38;7.07;;;;;;;7.64;71.94;98726.75;4996491;28;20427;-63
2021/01/29 00:15:30;;;;;;;9.07;6.85;;;;;;;7.62;71.94;98727.09;4997046;28;20058;-63
2021/01/29 00:17:58;;;;;;;10.02;6.88;;;;;;;7.65;71.88;98718.09;4996895;28;20491;-63
2021/01/29 00:20:27;;;;;;;9.90;6.53;;;;;;;7.66;72.20;98705.84;4996982;28;20341;-63
2021/01/29 00:22:54;;;;;;;9.27;6.83;;;;;;;7.70;71.06;98711.53;4997046;28;20053;-63
2021/01/29 00:25:22;;;;;;;11.25;6.65;;;;;;;7.70;71.50;98706.00;4997894;28;20492;-63
2021/01/29 00:27:50;;;;;;;9.32;6.40;;;;;;;7.71;71.72;98702.91;4997180;28;20062;-63
2021/01/29 00:30:20;;;;;;;8.95;6.55;;;;;;;7.71;71.65;98694.59;4997210;28;20054;-63
2021/01/29 00:32:49;;;;;;;8.35;6.07;;;;;;;7.75;71.39;98691.13;4996578;28;20051;-63
2021/01/29 00:35:16;;;;;;;7.63;6.50;;;;;;;7.75;71.81;98691.94;4997068;28;20065;-63
2021/01/29 00:37:46;;;;;;;9.60;6.80;;;;;;;7.75;70.81;98686.41;4996716;28;20061;-63
2021/01/29 00:40:14;;;;;;;8.50;6.50;;;;;;;7.80;71.39;98674.28;4988414;28;20497;-63
2021/01/29 00:42:41;;;;;;;7.78;6.03;;;;;;;7.80;71.36;98668.75;4996684;28;20058;-63
2021/01/29 00:45:10;;;;;;;7.75;6.25;;;;;;;7.83;72.15;98659.75;4996808;28;20058;-63
2021/01/29 00:47:37;;;;;;;8.13;6.22;;;;;;;7.76;71.94;98648.41;4997305;28;20411;-63
2021/01/29 00:50:08;;;;;;;7.85;6.57;;;;;;;7.81;72.35;98639.88;4996361;28;20065;-63
2021/01/29 00:52:35;;;;;;;8.23;6.15;;;;;;;7.83;72.33;98640.34;4996406;28;20062;-63
2021/01/29 00:55:03;;;;;;;8.30;6.30;;;;;;;7.85;72.33;98644.41;4996744;28;20476;-63
2021/01/29 00:57:30;;;;;;;9.68;6.45;;;;;;;7.90;72.33;98637.84;4996654;28;20061;-63
2021/01/29 00:59:57;;;;;;;8.02;6.45;;;;;;;7.90;72.81;98637.84;4996635;28;20062;-63
2021/01/29 01:02:24;;;;;;;9.30;6.78;;;;;;;7.92;72.97;98630.81;5006271;28;20054;-63
2021/01/29 01:04:51;;;;;;;9.82;6.43;;;;;;;7.92;72.96;98630.81;5015725;28;20060;-63
2021/01/29 01:07:18;;;;;;;8.75;6.28;;;;;;;7.98;73.58;98623.09;5015781;28;20058;-63
2021/01/29 01:09:46;;;;;;;7.97;5.63;;;;;;;8.03;72.39;98620.06;5016119;28;20049;-63
2021/01/29 01:12:13;;;;;;;9.95;6.43;;;;;;;8.09;73.13;98613.16;5013439;28;20054;-63
2021/01/29 01:14:39;;;;;;;11.57;6.55;;;;;;;8.12;72.89;98600.56;4996079;28;20066;-63
2021/01/29 01:17:07;;;;;;;11.73;7.38;;;;;;;8.12;72.77;98590.28;4996123;28;20057;-63
2021/01/29 01:19:36;;;;;;;13.95;7.40;;;;;;;8.12;73.68;98590.28;4995178;28;20399;-62
2021/01/29 01:22:04;;;;;;;11.77;7.27;;;;;;;8.18;73.82;98587.31;4995627;28;20518;-63
2021/01/29 01:24:39;;;;;;;18.30;8.73;;;;;;;8.24;74.21;98580.38;4998661;28;20062;-62
2021/01/29 01:27:07;;;;;;;21.95;10.60;;;;;;;8.26;75.51;98572.50;4996053;28;20069;-62
2021/01/29 01:29:34;;;;;;;21.92;11.75;;;;;;;8.27;75.77;98552.75;4995800;28;20057;-62
2021/01/29 01:32:01;;;;;;;15.98;9.65;;;;;;;8.30;75.05;98548.47;4995800;28;20050;-62
2021/01/29 01:34:30;;;;;;;16.65;8.00;;;;;;;8.38;75.90;98543.94;4996226;28;20441;-63
2021/01/29 01:36:58;;;;;;;20.88;10.55;;;;;;;8.41;75.49;98535.78;4996058;28;20050;-63
2021/01/29 01:39:25;;;;;;;12.32;7.82;;;;;;;8.44;75.06;98525.94;5006961;28;20410;-63
2021/01/29 01:41:54;;;;;;;12.43;7.13;;;;;;;8.48;73.54;98524.94;5015284;28;20515;-63
2021/01/29 01:44:31;;;;;;;10.57;7.50;;;;;;;8.52;73.39;98525.03;5015449;28;20077;-63
2021/01/29 01:47:02;;;;;;;11.85;7.05;;;;;;;8.55;73.45;98513.25;5015668;28;20054;-63
2021/01/29 01:49:31;;;;;;;11.52;7.53;;;;;;;8.56;73.36;98511.25;5014557;28;20491;-63
2021/01/29 01:52:04;;;;;;;17.90;10.23;;;;;;;8.60;73.28;98498.31;5013103;28;20061;-63
2021/01/29 01:54:44;;;;;;;17.33;9.07;;;;;;;8.66;73.21;98496.91;5015987;28;20053;-63
2021/01/29 01:57:15;;;;;;;16.02;9.75;;;;;;;8.66;73.60;98494.94;5015555;28;20050;-63
2021/01/29 01:59:45;;;;;;;19.75;10.63;;;;;;;8.66;73.92;98491.38;5015523;28;20065;-63
2021/01/29 02:02:14;;;;;;;18.48;10.63;;;;;;;8.68;74.23;98483.50;5014653;28;20054;-63
2021/01/29 02:04:45;;;;;;;15.63;9.45;;;;;;;8.67;74.41;98470.75;5014671;28;20061;-63
2021/01/29 02:07:23;;;;;;;12.50;8.00;;;;;;;8.68;72.74;98466.84;4995213;28;20054;-63
2021/01/29 02:09:50;;;;;;;13.93;8.85;;;;;;;8.65;72.45;98461.97;4995153;28;20058;-63
2021/01/29 02:12:20;;;;;;;15.93;9.45;;;;;;;8.67;73.55;98454.09;4995276;28;20061;-63
2021/01/29 02:14:49;;;;;;;16.92;8.77;;;;;;;8.65;73.33;98442.56;4995745;28;20058;-62
2021/01/29 02:17:31;;;;;;;11.27;7.68;;;;;;;8.66;72.71;98427.53;4995089;28;20427;-63
2021/01/29 02:20:37;;;;;;;15.18;8.20;;;;;;;8.59;71.91;98424.53;4994716;28;20492;-62
2021/01/29 02:23:47;;;;;;;18.50;9.32;;;;;;;8.52;72.99;98405.72;4994712;28;20046;-62
2021/01/29 02:26:57;;;;;;;21.27;11.18;;;;;;;8.47;73.75;98389.31;4975873;28;20047;-63
2021/01/29 02:29:42;;;;;;;;;;;;;;;8.44;74.29;98385.28;4976349;28;20356;-62
2021/01/29 02:32:47;;;;;;;22.33;11.15;;;;;;;8.39;74.24;98371.63;4979434;28;19921;-62
2021/01/29 02:35:45;;;;;;;21.65;11.57;;;;;;;8.35;74.30;98365.16;4994470;28;20515;-62
2021/01/29 02:38:48;;;;;;;22.23;11.48;;;;;;;8.34;74.58;98352.47;4994613;28;20609;-62
2021/01/29 02:41:26;;;;;;;19.23;10.85;;;;;;;8.24;74.01;98352.94;4962489;28;20495;-62
2021/01/29 02:44:11;;;;;;;19.55;10.18;;;;;;;8.24;73.58;98347.41;5014001;28;20053;-62
2021/01/29 02:46:51;;;;;;;18.30;9.88;;;;;;;8.22;73.82;98333.88;5013856;28;20057;-62
2021/01/29 02:49:21;;;;;;;;;;;;;;;8.16;73.79;98328.94;5005707;28;20062;-62
2021/01/29 02:51:56;;;;;;;15.05;10.05;;;;;;;8.11;74.26;98319.72;4994193;28;20393;-62
2021/01/29 02:54:32;;;;;;;17.00;10.10;;;;;;;8.14;74.11;98316.22;4993712;28;20054;-62
2021/01/29 02:57:04;;;;;;;18.08;9.75;;;;;;;8.18;74.34;98308.00;4994431;28;20062;-62
2021/01/29 02:59:36;;;;;;;15.73;9.75;;;;;;;8.18;73.93;98298.88;4994377;28;20079;-62
2021/01/29 03:02:09;;;;;;;15.57;9.35;;;;;;;8.21;73.31;98296.22;4993760;28;20065;-62
2021/01/29 03:04:47;;;;;;;16.35;9.60;;;;;;;8.24;72.89;98297.50;4995734;28;20065;-62
2021/01/29 03:07:22;;;;;;;15.20;8.73;;;;;;;8.24;73.27;98292.75;4993959;28;20403;-62
2021/01/29 03:09:59;;;;;;;16.30;9.82;;;;;;;8.28;73.23;98279.78;4993826;28;20380;-62
2021/01/29 03:12:32;;;;;;;12.35;9.02;;;;;;;8.31;73.32;98273.50;5001323;28;20064;-62
2021/01/29 03:15:09;;;;;;;15.05;9.50;;;;;;;8.34;73.45;98266.47;4997317;28;20051;-62
2021/01/29 03:17:41;;;;;;;23.08;10.25;;;;;;;8.36;73.47;98252.22;4992647;28;20058;-62
2021/01/29 03:20:11;;;;;;;13.15;8.35;;;;;;;8.39;73.99;98254.31;5004227;28;20057;-62
2021/01/29 03:22:42;;;;;;;;;;;;;;;8.40;73.81;98245.66;5013768;28;20490;-62
2021/01/29 03:25:20;;;;;;;10.77;7.30;;;;;;;8.39;72.88;98238.47;5012555;28;19928;-62
2021/01/29 03:27:51;;;;;;;14.20;8.85;;;;;;;8.41;72.59;98227.06;4974317;28;20051;-62
2021/01/29 03:30:24;;;;;;;16.73;8.77;;;;;;;8.41;72.71;98213.97;4991490;28;20057;-62
2021/01/29 03:32:54;;;;;;;13.15;6.32;;;;;;;8.26;78.64;98201.66;4993829;28;20054;-63
2021/01/29 03:35:25;;;;;;;12.25;5.20;;;;;;;8.08;81.71;98197.59;4994075;28;20054;-62
2021/01/29 03:38:00;;;;;;;15.57;5.55;;;;;;;7.99;85.11;98189.44;4993189;28;20510;-62
2021/01/29 03:40:28;;;;;;;16.77;6.13;;;;;;;7.94;86.75;98184.16;4993538;28;20054;-62
2021/01/29 03:43:03;;;;;;;9.93;4.60;;;;;;;7.92;87.97;98186.47;4992977;28;20054;-62
2021/01/29 03:45:40;;;;;;;13.98;5.28;;;;;;;8.00;88.05;98182.75;4974861;28;20488;-61
2021/01/29 03:48:21;;;;;;;18.92;6.82;;;;;;;8.07;88.19;98179.38;4974361;28;20067;-62
2021/01/29 03:50:55;;;;;;;19.27;7.80;;;;;;;8.00;88.00;98181.91;4973859;28;20061;-62
2021/01/29 03:53:33;;;;;;;16.88;7.60;;;;;;;7.99;87.27;98167.25;4973998;28;20365;-62
2021/01/29 03:56:10;;;;;;;16.33;7.03;;;;;;;8.01;87.08;98159.41;4973944;28;20050;-61
2021/01/29 03:58:47;;;;;;;18.75;7.03;;;;;;;7.97;87.41;98155.72;4980916;28;20051;-61
2021/01/29 04:01:25;;;;;;;17.20;6.65;;;;;;;7.99;87.11;98138.75;4993420;28;20055;-60
2021/01/29 04:04:02;;;;;;;15.70;5.30;;;;;;;7.90;89.81;98134.16;4993680;28;20480;-60
2021/01/29 04:06:34;;;;;;;10.98;6.00;;;;;;;7.78;89.99;98136.19;4993244;28;20063;-61
2021/01/29 04:09:10;;;;;;;16.23;5.68;;;;;;;7.76;90.55;98116.34;4993271;28;20066;-60
2021/01/29 04:11:44;;;;;;;15.85;5.72;;;;;;;7.80;90.99;98111.69;4993326;28;20484;-61
2021/01/29 04:14:15;;;;;;;18.58;5.10;;;;;;;7.88;90.64;98105.19;4994704;28;20054;-62
2021/01/29 04:16:46;;;;;;;17.60;5.40;;;;;;;7.88;91.25;98107.97;4993146;28;20054;-62
2021/01/29 04:19:18;;;;;;;15.13;5.28;;;;;;;7.91;91.52;98107.25;4993337;28;20061;-61
2021/01/29 04:21:52;;;;;;;12.85;4.43;;;;;;;7.96;90.93;98093.13;4993882;28;20050;-60
2021/01/29 04:24:23;;;;;;;10.85;4.65;;;;;;;7.91;91.69;98085.06;4994290;28;20057;-60
2021/01/29 04:26:55;;;;;;;12.45;5.38;;;;;;;7.97;91.95;98083.66;4993687;28;20054;-60
2021/01/29 04:29:26;;;;;;;12.32;5.18;;;;;;;7.97;91.36;98066.22;4993045;28;20489;-60
2021/01/29 04:32:00;;;;;;;10.27;4.65;;;;;;;8.06;91.78;98067.66;4993610;28;20051;-60
2021/01/29 04:34:31;;;;;;;14.32;5.90;;;;;;;8.20;91.88;98066.41;4993322;28;20054;-59
2021/01/29 04:37:02;;;;;;;12.45;4.20;;;;;;;8.25;91.31;98055.88;4993616;28;20050;-60
2021/01/29 04:39:34;;;;;;;8.02;3.42;;;;;;;8.19;90.93;98048.16;4997695;28;20061;-60
2021/01/29 04:42:15;;;;;;;9.57;4.30;;;;;;;8.28;91.20;98040.47;5012500;28;20061;-60
2021/01/29 04:44:53;;;;;;;8.23;3.85;;;;;;;8.34;91.27;98045.38;5012070;28;20072;-60
2021/01/29 04:47:27;;;;;;;5.90;3.22;;;;;;;8.35;90.60;98037.84;5005614;28;20127;-60
2021/01/29 04:50:20;;;;;;;14.07;5.72;;;;;;;8.49;91.65;98021.59;4992485;28;20055;-60
2021/01/29 04:53:11;;;;;;;14.60;4.35;;;;;;;8.60;91.58;98015.47;4992734;28;20065;-59
2021/01/29 04:56:12;;;;;;;12.75;5.53;;;;;;;8.67;91.05;97996.19;4995601;28;20061;-59
2021/01/29 04:58:51;;;;;;;18.17;6.90;;;;;;;8.67;90.80;97990.66;4996164;28;20047;-62
2021/01/29 05:01:36;;;;;;;13.90;6.25;;;;;;;8.60;90.83;97982.97;4995733;28;20065;-60
2021/01/29 05:04:37;;;;;;;17.88;5.25;;;;;;;8.67;91.21;97983.16;4977030;28;20404;-59
2021/01/29 05:07:24;;;;;;;11.02;5.82;;;;;;;8.65;90.67;97984.66;4976357;28;20117;-59
2021/01/29 05:10:18;;;;;;;12.70;6.18;;;;;;;8.70;90.88;97970.53;4979071;28;20412;-59
2021/01/29 05:13:08;;;;;;;12.77;6.00;;;;;;;8.79;90.40;97956.44;4996583;28;20050;-60
2021/01/29 05:16:06;;;;;;;16.45;6.32;;;;;;;8.81;90.87;97952.09;4976669;28;20098;-60
2021/01/29 05:19:11;;;;;;;17.83;8.07;;;;;;;8.86;90.44;97937.97;4954785;28;20062;-59
2021/01/29 05:22:15;;;;;;;14.88;6.70;;;;;;;8.92;90.30;97935.66;4976187;28;20051;-60
2021/01/29 05:25:25;;;;;;;13.40;6.20;;;;;;;8.93;90.32;97932.53;4920773;29;20079;-60
2021/01/29 05:28:23;;;;;;;12.35;4.80;;;;;;;8.95;89.82;97921.06;4995113;28;20411;-59
2021/01/29 05:31:08;;;;;;;13.57;5.82;;;;;;;8.90;89.05;97916.63;4995783;28;20058;-60
2021/01/29 05:34:09;;;;;;;9.43;5.18;;;;;;;8.96;89.19;97913.53;4995570;28;20070;-60
2021/01/29 05:37:10;;;;;;;29.45;10.63;;;;;;;9.00;88.11;97911.63;4979085;28;20054;-60
2021/01/29 05:39:48;;;;;;;22.95;10.13;;;;;;;8.92;86.25;97914.28;4984163;28;20412;-60
2021/01/29 05:42:29;;;;;;;30.83;11.60;;;;;;;8.90;86.94;97905.53;4975186;28;20061;-59
2021/01/29 05:45:15;;;;;;;29.10;11.23;;;;;;;8.96;86.09;97910.75;4975569;28;20068;-60
2021/01/29 05:48:30;;;;;;;37.25;13.10;;;;;;;8.94;86.09;97914.72;4976028;28;20412;-59
2021/01/29 05:51:42;;;;;;;27.25;11.43;;;;;;;8.97;85.81;97912.38;4975721;28;20536;-59
2021/01/29 05:54:30;;;;;;;30.50;12.20;;;;;;;8.96;86.11;97899.66;4986669;28;20057;-60
2021/01/29 05:57:41;;;;;;;18.58;8.85;;;;;;;9.02;86.04;97900.97;4995178;28;20065;-59
2021/01/29 06:00:24;;;;;;;20.20;8.35;;;;;;;9.02;85.54;97903.75;4995201;28;20054;-59
2021/01/29 06:03:12;;;;;;;19.15;7.57;;;;;;;9.01;85.14;97900.19;4994454;28;20169;-59
2021/01/29 06:06:16;;;;;;;19.85;8.75;;;;;;;9.05;85.55;97903.81;4992945;28;20058;-58
2021/01/29 06:09:26;;;;;;;30.00;14.73;;;;;;;9.04;85.77;97890.31;4956562;29;20396;-57
2021/01/29 06:12:03;;;;;;;;;;;;;;;9.03;86.25;97883.13;4955546;28;20054;-60
2021/01/29 06:15:12;;;;;;;23.35;11.82;;;;;;;8.99;85.14;97876.69;4987904;28;19922;-60
2021/01/29 06:18:12;;;;;;;22.10;10.80;;;;;;;8.92;84.47;97867.09;4994811;28;20419;-59
2021/01/29 06:21:13;;;;;;;19.27;9.80;;;;;;;8.87;84.98;97863.81;4992762;28;20395;-59
2021/01/29 06:24:13;;;;;;;19.85;9.30;;;;;;;8.87;84.35;97859.06;4982539;28;20384;-57
2021/01/29 06:26:59;;;;;;;15.02;8.73;;;;;;;8.85;84.81;97844.75;4986833;28;20061;-60
2021/01/29 06:29:41;;;;;;;17.50;8.68;;;;;;;8.86;84.45;97843.56;4994592;28;20050;-58
2021/01/29 06:32:56;;;;;;;17.60;8.90;;;;;;;8.85;84.67;97836.41;4994463;28;20050;-59
2021/01/29 06:35:41;;;;;;;15.20;8.57;;;;;;;8.84;84.38;97851.47;4994255;28;20408;-59
2021/01/29 06:38:23;;;;;;;14.60;7.45;;;;;;;8.87;84.51;97842.41;4994797;28;20062;-59
2021/01/29 06:41:09;;;;;;;16.15;8.48;;;;;;;8.87;84.69;97842.41;5006236;28;20371;-59
2021/01/29 06:43:47;;;;;;;20.60;9.23;;;;;;;8.83;84.78;97846.28;4994475;28;20057;-58
2021/01/29 06:46:38;;;;;;;15.45;8.23;;;;;;;8.91;84.60;97839.69;4995383;28;20050;-59
2021/01/29 06:49:35;;;;;;;19.83;9.82;;;;;;;8.93;84.96;97832.59;5005209;28;20428;-59
2021/01/29 06:52:35;;;;;;;19.23;9.48;;;;;;;9.00;85.22;97842.22;4969818;28;20511;-58
2021/01/29 06:55:34;;;;;;;19.90;9.70;;;;;;;9.03;85.23;97841.47;4993651;28;20058;-58
2021/01/29 06:58:25;;;;;;;15.77;9.33;;;;;;;9.06;84.13;97854.66;4992857;28;20057;-60
2021/01/29 07:01:08;;;;;;;21.88;10.43;;;;;;;9.07;84.22;97851.50;4992133;28;20053;-59
2021/01/29 07:04:23;;;;;;;17.02;9.05;;;;;;;9.11;84.58;97857.94;4991750;28;20050;-55
2021/01/29 07:07:00;;;;;;;25.77;12.27;;;;;;;9.14;84.49;97861.94;4989932;28;20065;-60
2021/01/29 07:09:52;;;;;;;19.40;10.38;;;;;;;9.21;84.55;97862.06;4974631;28;20062;-59
2021/01/29 07:12:32;;;;;;;25.98;11.55;;;;;;;9.23;83.93;97859.72;4974258;28;20408;-59
2021/01/29 07:15:23;;;;;;;37.50;14.65;;;;;;;9.24;83.48;97861.31;5002058;28;20050;-58
2021/01/29 07:18:17;;;;;;;22.10;10.55;;;;;;;9.23;83.68;97862.47;4988380;28;20054;-60
2021/01/29 07:21:08;;;;;;;32.00;13.00;;;;;;;9.26;83.70;97870.09;4993625;28;20080;-60
2021/01/29 07:23:52;;;;;;;23.05;11.93;;;;;;;9.29;83.65;97880.44;4994656;28;20041;-59
2021/01/29 07:26:45;;;;;;;14.77;8.93;;;;;;;9.26;82.94;97881.19;5002262;28;20070;-60
2021/01/29 07:29:41;;;;;;;10.90;7.35;;;;;;;9.22;83.25;97888.66;4993728;28;20514;-59
2021/01/29 07:32:20;;;;;;;11.15;7.60;;;;;;;9.20;83.13;97888.22;4991664;28;20049;-63
2021/01/29 07:34:54;;;;;;;14.77;8.38;;;;;;;9.20;83.44;97893.78;4993327;28;20042;-63
2021/01/29 07:37:53;;;;;;;15.45;8.68;;;;;;;9.24;83.68;97893.84;4993460;28;20065;-63
2021/01/29 07:40:39;;;;;;;13.77;8.77;;;;;;;9.27;84.11;97893.91;4993830;28;20066;-64
2021/01/29 07:43:39;;;;;;;15.30;8.20;;;;;;;9.28;83.48;97911.38;4992933;28;20050;-64
2021/01/29 07:46:37;;;;;;;10.82;7.60;;;;;;;9.28;83.74;97903.84;4988548;28;20393;-64
2021/01/29 07:49:36;;;;;;;12.05;7.57;;;;;;;9.31;83.39;97905.88;4981466;28;20058;-65
2021/01/29 07:52:15;;;;;;;9.68;6.30;;;;;;;9.30;83.69;97907.06;4970682;28;20073;-64
2021/01/29 07:55:08;;;;;;;12.27;8.30;;;;;;;9.28;83.76;97914.97;4990083;28;20070;-65
2021/01/29 07:58:01;;;;;;;13.77;9.25;;;;;;;9.33;83.70;97920.22;4989682;28;20058;-65
2021/01/29 08:00:41;;;;;;;14.43;9.38;;;;;;;9.32;83.80;97910.28;4988361;28;20066;-65
2021/01/29 08:03:26;;;;;;;11.77;6.88;;;;;;;9.31;83.90;97925.31;4989754;28;20046;-65
2021/01/29 08:06:02;;;;;;;7.80;6.20;;;;;;;9.34;83.58;97916.28;4990890;28;20484;-65
2021/01/29 08:08:32;;;;;;;6.95;4.82;;;;;;;9.41;83.77;97917.53;4990532;28;20691;-65
2021/01/29 08:11:01;;;;;;;11.57;5.25;;;;;;;9.40;83.59;97918.72;4990447;28;20401;-65
2021/01/29 08:13:44;;;;;;;8.65;5.53;;;;;;;9.44;83.14;97922.38;4992954;28;20050;-65
2021/01/29 08:16:30;;;;;;;8.23;5.45;;;;;;;9.45;83.26;97935.09;4990161;28;20109;-65
2021/01/29 08:19:04;;;;;;;7.45;4.82;;;;;;;9.46;83.34;97931.94;4990936;28;20065;-65
2021/01/29 08:22:11;;;;;;;8.32;5.18;;;;;;;9.45;83.45;97926.75;4989056;28;20049;-65
2021/01/29 08:24:50;;;;;;;8.13;6.20;;;;;;;9.51;83.78;97937.22;4990372;28;20058;-65
2021/01/29 08:27:53;;;;;;;10.07;7.55;;;;;;;9.56;83.56;97944.44;4990196;28;20054;-65
2021/01/29 08:30:45;;;;;;;11.70;7.30;;;;;;;9.59;83.88;97938.13;4991943;28;20507;-65
2021/01/29 08:33:53;;;;;;;10.85;8.70;;;;;;;9.62;83.79;97945.75;4991086;28;20054;-65
2021/01/29 08:36:31;;;;;;;11.38;7.60;;;;;;;9.66;83.06;97943.00;4992273;28;20058;-65
2021/01/29 08:39:05;;;;;;;10.43;7.80;;;;;;;9.69;82.73;97943.06;4987943;28;20055;-65
2021/01/29 08:41:45;;;;;;;12.00;8.52;;;;;;;9.72;82.73;97947.06;4968507;28;20054;-65
2021/01/29 08:44:24;;;;;;;12.57;6.38;;;;;;;9.72;81.89;97936.78;4970640;28;20055;-65
2021/01/29 08:47:18;;;;;;;12.18;8.05;;;;;;;9.74;82.66;97942.78;4969883;28;20054;-66
2021/01/29 08:50:08;;;;;;;10.05;6.82;;;;;;;9.76;82.23;97939.59;4995138;28;20458;-66
2021/01/29 08:53:12;;;;;;;10.23;6.70;;;;;;;9.75;82.40;97938.81;4991814;28;20058;-65
2021/01/29 08:55:54;;;;;;;11.13;7.63;;;;;;;9.70;82.36;97941.91;4993962;28;20069;-65
2021/01/29 08:58:30;;;;;;;17.42;9.27;;;;;;;9.71;82.74;97943.50;4993466;28;20065;-65
2021/01/29 09:01:04;;;;;;;13.25;9.90;;;;;;;9.73;82.99;97948.69;4994995;28;20050;-65
2021/01/29 09:03:40;;;;;;;14.68;9.35;;;;;;;9.71;83.23;97940.72;4993235;28;20077;-66
2021/01/29 09:06:16;;;;;;;10.60;7.45;;;;;;;9.74;83.47;97947.50;4994813;28;20053;-66
2021/01/29 09:08:43;;;;;;;11.50;6.35;;;;;;;9.78;83.12;97944.78;4995278;28;20058;-66
2021/01/29 09:11:22;;;;;;;9.85;7.13;;;;;;;9.72;83.89;97944.28;4994472;28;20415;-66
2021/01/29 09:13:57;;;;;;;8.85;5.50;;;;;;;9.70;83.65;97960.53;4989833;28;20403;-66
2021/01/29 09:16:28;;;;;;;11.40;5.93;;;;;;;9.67;83.66;97950.19;4990556;28;20058;-67
2021/01/29 09:19:04;;;;;;;15.20;6.55;;;;;;;9.70;83.50;97961.38;4994750;28;20061;-66
2021/01/29 09:21:39;;;;;;;12.15;6.20;;;;;;;9.66;84.42;97965.22;4992889;28;20054;-66
2021/01/29 09:24:14;;;;;;;13.10;7.43;;;;;;;9.63;84.14;97964.00;4994766;28;20057;-67
2021/01/29 09:27:01;;;;;;;13.60;6.65;;;;;;;9.64;84.88;97979.53;4991086;28;20077;-67
2021/01/29 09:29:31;;;;;;;15.10;6.70;;;;;;;9.63;84.38;97972.34;4993629;28;20050;-66
2021/01/29 09:32:00;;;;;;;;;;;;;;;9.64;85.43;97992.59;4995339;28;20054;-66
2021/01/29 09:34:37;;;;;;;22.80;7.90;;;;;;;9.59;84.93;97993.72;4993818;28;20012;-66
2021/01/29 09:37:08;;;;;;;15.40;8.23;;;;;;;9.63;84.97;97996.56;4994732;28;20477;-66
2021/01/29 09:39:40;;;;;;;19.48;8.45;;;;;;;9.62;84.84;97992.97;4990562;28;20397;-66
2021/01/29 09:42:11;;;;;;;15.43;7.97;;;;;;;9.66;85.11;97993.84;4990922;28;20055;-66
2021/01/29 09:44:44;;;;;;;13.10;6.80;;;;;;;9.66;84.41;98001.38;4993370;28;20070;-66
2021/01/29 09:47:17;;;;;;;14.40;7.28;;;;;;;9.65;83.93;98010.88;4993485;28;20062;-65
2021/01/29 09:49:46;;;;;;;17.02;7.85;;;;;;;9.64;84.16;98037.88;4993213;28;20057;-65
2021/01/29 09:52:21;;;;;;;12.50;6.93;;;;;;;9.61;84.26;98024.72;4992202;28;20415;-65
2021/01/29 09:54:58;;;;;;;18.63;8.52;;;;;;;9.62;83.79;98031.91;4993921;28;20105;-65
2021/01/29 09:57:27;;;;;;;14.65;6.65;;;;;;;9.57;83.19;98039.72;4991032;28;20058;-65
2021/01/29 10:00:04;;;;;;;13.85;6.78;;;;;;;9.46;83.46;98036.72;4992131;28;20531;-65
2021/01/29 10:02:40;;;;;;;16.65;6.53;;;;;;;9.43;84.47;98040.22;4983739;28;20061;-65
2021/01/29 10:05:35;;;;;;;12.68;6.88;;;;;;;9.41;84.38;98037.00;4992504;28;20058;-65
2021/01/29 10:08:16;;;;;;;13.65;7.07;;;;;;;9.50;84.79;98048.72;4990687;28;20423;-67
2021/01/29 10:10:58;;;;;;;12.23;6.53;;;;;;;9.56;84.08;98066.72;4993670;28;20061;-65
2021/01/29 10:14:07;;;;;;;14.93;8.20;;;;;;;9.56;84.44;98058.38;4992074;28;20054;-65
2021/01/29 10:16:37;;;;;;;15.23;6.93;;;;;;;9.57;84.35;98070.28;4932623;29;20063;-65
2021/01/29 10:19:29;;;;;;;14.70;7.60;;;;;;;9.61;84.02;98074.75;4984344;28;20054;-66
2021/01/29 10:22:29;;;;;;;17.50;7.35;;;;;;;9.59;83.19;98071.53;4993359;28;20066;-66
2021/01/29 10:25:05;;;;;;;15.40;7.35;;;;;;;9.57;83.29;98078.63;4989331;28;20046;-65
2021/01/29 10:27:41;;;;;;;16.58;8.45;;;;;;;9.62;83.65;98084.69;4995557;28;20057;-65
2021/01/29 10:30:15;;;;;;;19.67;8.73;;;;;;;9.65;83.44;98081.16;4993289;28;20065;-65
2021/01/29 10:32:53;;;;;;;21.30;8.60;;;;;;;9.63;82.99;98097.41;4993167;28;20050;-66
2021/01/29 10:35:24;;;;;;;26.20;9.45;;;;;;;9.62;83.80;98087.47;4993034;28;20061;-65
2021/01/29 10:38:00;;;;;;;21.33;9.90;;;;;;;9.61;83.26;98090.63;4992976;28;20480;-65
2021/01/29 10:40:34;;;;;;;23.65;9.20;;;;;;;9.64;83.92;98109.31;4973883;28;20055;-66
2021/01/29 10:43:10;;;;;;;26.67;8.68;;;;;;;9.62;83.20;98112.50;4972961;28;20054;-66
2021/01/29 10:45:47;;;;;;;21.40;9.48;;;;;;;9.58;84.14;98105.25;4974179;28;20535;-66
2021/01/29 10:48:40;;;;;;;29.58;12.52;;;;;;;9.61;84.22;98098.94;4972555;28;20050;-66
2021/01/29 10:51:17;;;;;;;26.25;10.40;;;;;;;9.55;83.10;98121.50;4984600;28;20065;-66
2021/01/29 10:53:44;;;;;;;30.08;10.23;;;;;;;9.49;83.17;98111.84;4969450;28;20053;-66
2021/01/29 10:56:17;;;;;;;37.60;11.57;;;;;;;9.52;82.98;98121.41;4971511;28;20063;-66
2021/01/29 10:58:52;;;;;;;28.48;11.55;;;;;;;9.51;83.56;98119.78;4973210;28;20047;-66
2021/01/29 11:01:38;;;;;;;34.65;11.55;;;;;;;9.54;82.94;98116.28;4971635;28;20081;-66
2021/01/29 11:04:09;;;;;;;35.17;12.43;;;;;;;9.53;83.15;98126.63;4970164;28;20047;-66
2021/01/29 11:06:43;;;;;;;33.42;12.45;;;;;;;9.60;82.63;98133.50;4972375;28;20057;-66
2021/01/29 11:09:19;;;;;;;35.83;12.50;;;;;;;9.64;82.25;98126.81;4970127;28;20055;-66
2021/01/29 11:11:54;;;;;;;27.90;10.57;;;;;;;9.67;81.36;98137.19;4982092;28;20058;-66
2021/01/29 11:14:28;;;;;;;35.90;11.45;;;;;;;9.71;81.20;98143.63;4976323;28;20074;-66
2021/01/29 11:17:03;;;;;;;31.67;10.18;;;;;;;9.78;79.76;98133.84;4970281;28;20061;-66
2021/01/29 11:19:37;;;;;;;33.42;10.80;;;;;;;9.99;78.86;98128.69;4975980;28;20053;-66
2021/01/29 11:22:16;;;;;;;34.35;10.13;;;;;;;10.04;79.09;98133.97;4981063;28;20061;-66
2021/01/29 11:25:06;;;;;;;27.90;9.13;;;;;;;10.02;77.93;98138.28;4973120;28;20443;-66
2021/01/29 11:27:41;;;;;;;28.33;8.93;;;;;;;10.03;78.83;98128.75;4979330;28;20121;-66
2021/01/29 11:30:16;;;;;;;23.73;9.00;;;;;;;10.03;78.63;98140.69;4991240;28;20065;-66
2021/01/29 11:32:45;;;;;;;25.33;8.75;;;;;;;10.05;77.62;98143.09;4974554;28;20483;-66
2021/01/29 11:35:24;;;;;;;23.92;7.97;;;;;;;10.22;77.50;98148.19;4976099;28;20057;-65
2021/01/29 11:38:23;;;;;;;23.40;8.77;;;;;;;10.39;77.72;98144.16;4981042;28;20062;-66
2021/01/29 11:40:58;;;;;;;27.05;8.95;;;;;;;10.28;77.30;98143.13;4976341;28;20408;-66
2021/01/29 11:43:38;;;;;;;20.75;8.25;;;;;;;10.49;77.18;98149.09;4994171;28;20046;-66
2021/01/29 11:46:15;;;;;;;24.60;8.98;;;;;;;10.68;75.44;98144.66;4995713;28;20054;-66
2021/01/29 11:48:51;;;;;;;23.30;7.82;;;;;;;10.77;75.08;98143.22;4990742;28;20407;-67
2021/01/29 11:51:26;;;;;;;22.15;8.50;;;;;;;10.64;75.45;98135.44;4985677;28;20062;-65
2021/01/29 11:54:06;;;;;;;26.60;8.77;;;;;;;10.70;75.58;98159.00;4985274;28;20059;-67
2021/01/29 11:56:39;;;;;;;24.10;8.70;;;;;;;10.74;75.29;98146.75;4991032;28;20057;-66
2021/01/29 11:59:21;;;;;;;24.05;8.18;;;;;;;10.81;74.63;98146.06;4993370;28;20069;-66
2021/01/29 12:01:55;;;;;;;25.42;8.45;;;;;;;10.94;73.89;98155.84;4988164;28;20061;-66
2021/01/29 12:04:28;;;;;;;24.05;8.32;;;;;;;11.12;73.75;98149.72;4993573;28;20046;-65
2021/01/29 12:07:01;;;;;;;23.33;7.68;;;;;;;11.42;72.17;98140.59;4996095;28;20057;-65
2021/01/29 12:09:40;;;;;;;22.73;7.57;;;;;;;11.37;70.96;98145.31;4997741;28;20057;-65
2021/01/29 12:12:15;;;;;;;19.92;6.75;;;;;;;11.82;69.07;98148.28;4999133;28;20479;-65
2021/01/29 12:14:58;;;;;;;20.17;6.88;;;;;;;12.53;66.90;98142.69;4996254;28;20046;-64
2021/01/29 12:17:27;;;;;;;22.10;6.88;;;;;;;12.80;66.22;98146.09;4999720;28;20054;-64
2021/01/29 12:19:58;;;;;;;;;;;;;;;13.27;63.36;98146.47;5001285;28;20071;-64
2021/01/29 12:22:30;;;;;;;19.80;6.35;;;;;;;12.91;65.50;98140.59;4998704;28;19926;-64
2021/01/29 12:25:22;;;;;;;18.48;5.22;;;;;;;12.49;66.00;98135.47;4997123;28;20051;-64
2021/01/29 12:27:55;;;;;;;16.60;6.07;;;;;;;12.22;66.82;98137.59;4996600;28;20303;-64
2021/01/29 12:30:32;;;;;;;19.50;6.72;;;;;;;12.39;66.86;98129.41;5000427;28;20054;-64
2021/01/29 12:33:08;;;;;;;18.73;5.85;;;;;;;12.44;65.80;98147.00;4997436;28;20490;-64